hero-logo

Top 15 Knowers of SLGN Silgan Holdings Inc - 2017-07-25

Rank Fund Result (K)
1 Gotham Asset Management Llc $1,505
2 Sapience Investments Llc $603
3 Hutchin Hill Capital Lp $480
4 Highbridge Capital Management Llc $467
5 Cornerstone Capital Management Holdings Llc $286
6 Verition Fund Management Llc $275
7 A R T Advisors Llc $256
8 Paloma Partners Management Co $122
9 Jane Street Group Llc $109
10 Gsa Capital Partners Llp $93
11 Squarepoint Ops Llc $91
12 Ellington Management Group Llc $45
13 Meadow Creek Investment Management Llc $35
14 Glen Harbor Capital Management Llc $22
15 Riverhead Capital Management Llc $18
Price Chart and News From Google Finance for SLGN Silgan Holdings Inc
Owner Date Shares Change Price Change Result (K)
Acrospire Investment Management Llc 2017-03-31 -400 $8.18 $-3
Ahl Partners Llp 2017-03-31 -96,118 $8.18 $-786
Amalgamated Bank 2017-03-31 -1,197 $8.18 $-9
Aperio Group Llc 2017-03-31 -235 $8.18 $-1
Aristotle Capital Boston Llc 2017-03-31 1,999 $8.18 $16
A R T Advisors Llc 2017-03-31 31,300 $8.18 $256
Assetmark Inc 2017-03-31 -113 $8.18 $0
Balentine Llc 2017-03-31 35 $8.18 $0
California State Teachers Retirement System 2017-03-31 -3,500 $8.18 $-28
Capstone Investment Advisors Llc 2017-03-31 -12,635 $8.18 $-103
Cardinal Capital Management Llc Ct 2017-03-31 -110,236 $8.18 $-901
Carlson Capital L P 2017-03-31 -762,858 $8.18 $-6,240
Cornerstone Capital Management Holdings Llc 2017-03-31 35,028 $8.18 $286
Earnest Partners Llc 2017-03-31 -23 $8.18 $0
Ellington Management Group Llc 2017-03-31 5,600 $8.18 $45
Envestnet Asset Management Inc 2017-03-31 207 $8.18 $1
Eulav Asset Management 2017-03-31 0 $8.18 $0
Glen Harbor Capital Management Llc 2017-03-31 2,772 $8.18 $22
Gotham Asset Management Llc 2017-03-31 184,065 $8.18 $1,505
Gsa Capital Partners Llp 2017-03-31 11,480 $8.18 $93
Guggenheim Capital Llc 2017-03-31 -3,290 $8.18 $-26
Highbridge Capital Management Llc 2017-03-31 57,107 $8.18 $467
Horizon Kinetics Llc 2017-03-31 -1,500 $8.18 $-12
Hutchin Hill Capital Lp 2017-03-31 58,800 $8.18 $480
Ifp Advisors Inc 2017-03-31 -120 $8.18 $0
Israel Discount Bank Of New York 2017-03-31 0 $8.18 $0
Jacobs Levy Equity Management Inc 2017-03-31 -59,160 $8.18 $-483
Jane Street Group Llc 2017-03-31 13,389 $8.18 $109
Kennedy Capital Management Inc 2017-03-31 1,034 $8.18 $8
Krilogy Financial Llc 2017-03-31 0 $8.18 $0
Ladenburg Thalmann Financial Services Inc 2017-03-31 -30 $8.18 $0
Mason Street Advisors Llc 2017-03-31 220 $8.18 $1
Meadow Creek Investment Management Llc 2017-03-31 4,284 $8.18 $35
Neuburgh Advisers Llc 2017-03-31 2,016 $8.18 $16
Northwestern Mutual Investment Management Company Llc 2017-03-31 2 $8.18 $0
Paloma Partners Management Co 2017-03-31 15,004 $8.18 $122
Pinkerton Retirement Specialists Llc 2017-03-31 -133 $8.18 $-1
Proficio Capital Partners Llc 2017-03-31 22 $8.18 $0
Public Employees Retirement System Of Ohio 2017-03-31 0 $8.18 $0
Riverhead Capital Management Llc 2017-03-31 2,260 $8.18 $18
Sapience Investments Llc 2017-03-31 73,827 $8.18 $603
Segall Bryant Hamill Llc 2017-03-31 -3,306 $8.18 $-27
Seven Eight Capital Lp 2017-03-31 -6,300 $8.18 $-51
Squarepoint Ops Llc 2017-03-31 11,233 $8.18 $91
Steinberg Asset Management Llc 2017-03-31 -4,620 $8.18 $-37
Verition Fund Management Llc 2017-03-31 33,675 $8.18 $275
Walleye Trading Llc 2017-03-31 1,093 $8.18 $8